createdAt,value
2019-05-21T00:01:00.556Z,12.73
2019-05-21T00:02:37.781Z,13.03
2019-05-21T00:04:27.307Z,12.40
2019-05-21T00:05:52.915Z,12.80
2019-05-21T00:07:29.526Z,13.57
2019-05-21T00:09:08.169Z,12.90
2019-05-21T00:10:44.671Z,13.50
2019-05-21T00:12:22.147Z,13.30
2019-05-21T00:13:58.708Z,14.13
2019-05-21T00:15:35.903Z,13.97
2019-05-21T00:17:12.542Z,13.90
2019-05-21T00:18:49.790Z,14.40
2019-05-21T00:20:27.210Z,15.40
2019-05-21T00:22:04.572Z,14.50
2019-05-21T00:23:41.210Z,14.60
2019-05-21T00:27:03.024Z,15.50
2019-05-21T00:28:39.370Z,15.20
2019-05-21T00:31:10.444Z,14.67
2019-05-21T00:33:42.009Z,15.70
2019-05-21T00:35:56.980Z,15.40
2019-05-21T00:38:28.359Z,15.47
2019-05-21T00:41:18.701Z,15.40
2019-05-21T00:42:56.003Z,15.80
2019-05-21T00:44:42.490Z,15.33
2019-05-21T00:46:19.847Z,16.73
2019-05-21T00:47:56.229Z,17.53
2019-05-21T00:49:35.718Z,15.70
2019-05-21T00:51:12.241Z,16.90
2019-05-21T00:52:49.558Z,16.47
2019-05-21T00:54:26.205Z,15.80
2019-05-21T00:56:03.732Z,16.60
2019-05-21T00:57:40.401Z,16.93
2019-05-21T00:59:18.290Z,16.80
2019-05-21T01:00:55.145Z,16.50
2019-05-21T01:02:32.415Z,17.13
2019-05-21T01:04:09.054Z,16.67
2019-05-21T01:05:46.335Z,16.50
2019-05-21T01:07:23.218Z,17.57
2019-05-21T01:09:00.561Z,16.83
2019-05-21T01:10:37.405Z,18.10
2019-05-21T01:12:14.613Z,17.43
2019-05-21T01:13:51.211Z,17.80
2019-05-21T01:15:28.607Z,17.70
2019-05-21T01:17:05.108Z,21.27
2019-05-21T01:18:42.918Z,20.13
2019-05-21T01:20:19.443Z,20.57
2019-05-21T01:21:57.408Z,18.50
2019-05-21T01:23:34.371Z,19.63
2019-05-21T01:25:12.027Z,18.13
2019-05-21T01:26:48.504Z,19.77
2019-05-21T01:28:25.621Z,21.33
2019-05-21T01:30:02.229Z,20.10
2019-05-21T01:31:39.527Z,26.20
2019-05-21T01:33:15.930Z,20.33
2019-05-21T01:34:52.974Z,20.30
2019-05-21T01:36:29.451Z,20.30
2019-05-21T01:38:07.005Z,20.97
2019-05-21T01:39:43.367Z,21.67
2019-05-21T01:41:20.769Z,22.37
2019-05-21T01:42:57.175Z,23.93
2019-05-21T01:44:34.528Z,23.93
2019-05-21T01:46:11.075Z,24.30
2019-05-21T01:47:48.245Z,23.47
2019-05-21T01:49:24.562Z,25.90
2019-05-21T01:51:01.681Z,26.53
2019-05-21T01:52:38.117Z,27.30
2019-05-21T01:54:15.233Z,26.50
2019-05-21T01:55:51.645Z,26.60
2019-05-21T01:57:28.685Z,26.13
2019-05-21T01:59:05.556Z,25.80
2019-05-21T02:00:43.370Z,25.27
2019-05-21T02:02:19.841Z,26.13
2019-05-21T02:03:57.205Z,26.53
2019-05-21T02:05:34.136Z,26.33
2019-05-21T02:07:11.383Z,28.13
2019-05-21T02:08:47.965Z,29.37
2019-05-21T02:10:25.181Z,29.03
2019-05-21T02:12:01.822Z,29.37
2019-05-21T02:13:38.919Z,28.60
2019-05-21T02:15:15.536Z,28.70
2019-05-21T02:16:52.891Z,29.93
2019-05-21T02:18:29.334Z,31.77
2019-05-21T02:20:07.995Z,29.83
2019-05-21T02:21:44.375Z,29.37
2019-05-21T02:23:21.681Z,30.10
2019-05-21T02:24:58.092Z,29.10
2019-05-21T02:26:35.269Z,28.97
2019-05-21T02:28:11.920Z,30.07
2019-05-21T02:29:49.000Z,30.90
2019-05-21T02:31:25.485Z,29.33
2019-05-21T02:33:02.806Z,29.83
2019-05-21T02:34:39.229Z,25.87
2019-05-21T02:36:16.345Z,23.50
2019-05-21T02:37:52.991Z,26.60
2019-05-21T02:39:30.282Z,25.10
2019-05-21T02:41:06.805Z,26.03
2019-05-21T02:42:44.135Z,25.70
2019-05-21T02:44:20.605Z,26.37
2019-05-21T02:45:57.921Z,27.87
2019-05-21T02:47:34.548Z,28.07
2019-05-21T02:49:11.747Z,30.03
2019-05-21T02:50:48.380Z,30.60
2019-05-21T02:52:25.681Z,33.10
2019-05-21T02:54:02.588Z,33.53
2019-05-21T02:55:39.831Z,33.00
2019-05-21T02:57:16.675Z,32.97
2019-05-21T02:58:54.028Z,34.00
2019-05-21T03:00:47.440Z,34.70
2019-05-21T03:02:40.577Z,34.30
2019-05-21T03:04:17.722Z,34.70
2019-05-21T03:06:10.481Z,34.77
2019-05-21T03:07:33.215Z,34.63
2019-05-21T03:09:09.758Z,33.70
2019-05-21T03:10:47.151Z,34.30
2019-05-21T03:12:23.779Z,35.90
2019-05-21T03:14:01.088Z,35.43
2019-05-21T03:15:37.560Z,34.63
2019-05-21T03:17:14.622Z,36.87
2019-05-21T03:18:50.917Z,35.73
2019-05-21T03:20:28.168Z,34.53
2019-05-21T03:22:04.678Z,34.40
2019-05-21T03:23:42.229Z,36.23
2019-05-21T03:25:18.834Z,34.80
2019-05-21T03:26:56.308Z,34.70
2019-05-21T03:28:32.827Z,34.90
2019-05-21T03:30:10.948Z,35.63
2019-05-21T03:31:47.631Z,35.57
2019-05-21T03:33:25.417Z,35.77
2019-05-21T03:35:03.701Z,34.10
2019-05-21T03:36:40.799Z,33.50
2019-05-21T03:38:17.174Z,34.50
2019-05-21T03:39:54.352Z,33.63
2019-05-21T03:41:30.851Z,35.33
2019-05-21T03:43:07.688Z,36.13
2019-05-21T03:44:59.087Z,35.63
2019-05-21T03:46:23.832Z,37.13
2019-05-21T03:48:00.601Z,35.27
2019-05-21T03:49:37.817Z,35.07
2019-05-21T03:51:14.330Z,36.60
2019-05-21T03:52:51.056Z,33.83
2019-05-21T03:54:27.686Z,35.93
2019-05-21T03:56:05.116Z,35.47
2019-05-21T03:57:42.170Z,34.83
2019-05-21T03:59:19.307Z,35.57
2019-05-21T04:00:55.789Z,40.17
2019-05-21T04:02:33.052Z,40.63
2019-05-21T04:04:09.713Z,37.47
2019-05-21T04:05:46.848Z,36.77
2019-05-21T04:07:23.508Z,34.53
2019-05-21T04:09:00.697Z,35.17
2019-05-21T04:10:37.712Z,34.73
2019-05-21T04:12:14.927Z,35.77
2019-05-21T04:13:51.412Z,36.47
2019-05-21T04:15:30.220Z,34.47
2019-05-21T04:17:14.513Z,35.53
2019-05-21T04:18:59.899Z,35.87
2019-05-21T04:20:36.424Z,34.17
2019-05-21T04:22:17.774Z,35.87
2019-05-21T04:23:54.910Z,36.83
2019-05-21T04:25:31.238Z,36.67
2019-05-21T04:27:08.424Z,35.70
2019-05-21T04:28:45.864Z,34.57
2019-05-21T04:30:23.325Z,35.97
2019-05-21T04:32:02.914Z,34.10
2019-05-21T04:33:40.117Z,37.17
2019-05-21T04:35:16.558Z,34.97
2019-05-21T04:37:16.613Z,35.80
2019-05-21T04:38:51.280Z,34.83
2019-05-21T04:40:27.643Z,34.77
2019-05-21T04:42:05.003Z,34.97
2019-05-21T04:43:41.851Z,34.93
2019-05-21T04:45:19.206Z,32.77
2019-05-21T04:46:55.628Z,34.90
2019-05-21T04:48:32.670Z,35.20
2019-05-21T04:50:09.403Z,35.03
2019-05-21T04:51:46.713Z,34.20
2019-05-21T04:53:23.001Z,34.33
2019-05-21T04:55:00.606Z,33.43
2019-05-21T04:56:37.179Z,32.40
2019-05-21T04:58:14.576Z,31.27
2019-05-21T04:59:51.822Z,33.47
2019-05-21T05:01:29.003Z,33.23
2019-05-21T05:03:05.638Z,32.70
2019-05-21T05:04:42.980Z,30.43
2019-05-21T05:06:19.372Z,30.33
2019-05-21T05:07:56.631Z,28.13
2019-05-21T05:09:33.122Z,27.10
2019-05-21T05:11:10.572Z,28.87
2019-05-21T05:12:47.147Z,29.00
2019-05-21T05:14:42.856Z,29.07
2019-05-21T05:16:20.227Z,29.83
2019-05-21T05:17:56.748Z,30.90
2019-05-21T05:19:33.884Z,31.47
2019-05-21T05:21:10.338Z,32.20
2019-05-21T05:22:47.451Z,28.47
2019-05-21T05:24:23.995Z,28.73
2019-05-21T05:26:04.588Z,27.57
2019-05-21T05:27:42.848Z,29.10
2019-05-21T05:29:20.092Z,29.30
2019-05-21T05:30:57.771Z,28.63
2019-05-21T05:32:34.870Z,27.37
2019-05-21T05:34:11.372Z,28.73
2019-05-21T05:35:48.721Z,25.73
2019-05-21T05:37:25.587Z,26.80
2019-05-21T05:39:02.922Z,26.10
2019-05-21T05:40:56.637Z,25.67
2019-05-21T05:42:37.223Z,26.80
2019-05-21T05:44:14.403Z,25.20
2019-05-21T05:45:51.023Z,26.97
2019-05-21T05:47:28.449Z,27.50
2019-05-21T05:49:12.563Z,25.27
2019-05-21T05:50:50.797Z,26.47
2019-05-21T05:52:28.326Z,28.33
2019-05-21T05:54:07.691Z,26.23
2019-05-21T05:55:44.047Z,27.03
2019-05-21T05:57:20.786Z,26.23
2019-05-21T05:58:58.234Z,22.70
2019-05-21T06:00:34.868Z,26.27
2019-05-21T06:02:12.230Z,26.03
2019-05-21T06:03:48.703Z,25.37
2019-05-21T06:05:26.592Z,23.37
2019-05-21T06:07:03.090Z,23.47
2019-05-21T06:08:43.032Z,23.17
2019-05-21T06:10:19.540Z,23.67
2019-05-21T06:11:56.832Z,23.10
2019-05-21T06:13:33.192Z,22.93
2019-05-21T06:15:11.044Z,24.80
2019-05-21T06:16:47.515Z,21.37
2019-05-21T06:18:25.494Z,20.00
2019-05-21T06:20:02.074Z,21.00
2019-05-21T06:21:39.524Z,21.37
2019-05-21T06:23:16.075Z,20.37
2019-05-21T06:24:53.249Z,20.40
2019-05-21T06:26:30.061Z,20.53
2019-05-21T06:28:06.916Z,19.70
2019-05-21T06:29:43.524Z,19.13
2019-05-21T06:31:20.788Z,18.43
2019-05-21T06:32:57.164Z,18.27
2019-05-21T06:34:34.364Z,17.83
2019-05-21T06:36:11.197Z,16.93
2019-05-21T06:37:48.371Z,16.10
2019-05-21T06:39:25.321Z,16.60
2019-05-21T06:41:02.751Z,17.13
2019-05-21T06:42:39.905Z,18.20
2019-05-21T06:44:17.104Z,18.10
2019-05-21T06:45:53.676Z,16.97
2019-05-21T06:47:30.739Z,17.83
2019-05-21T06:49:08.218Z,18.20
2019-05-21T06:50:47.110Z,18.17
2019-05-21T06:52:24.104Z,17.10
2019-05-21T06:54:01.228Z,16.57
2019-05-21T06:55:38.015Z,16.93
2019-05-21T06:57:15.397Z,18.40
2019-05-21T06:58:51.937Z,16.90
2019-05-21T07:00:29.181Z,16.00
2019-05-21T07:02:06.553Z,16.50
2019-05-21T07:03:43.480Z,17.13
2019-05-21T07:05:19.997Z,17.77
2019-05-21T07:06:57.239Z,18.77
2019-05-21T07:08:35.427Z,19.27
2019-05-21T07:10:15.402Z,19.27
2019-05-21T07:11:52.003Z,20.27
2019-05-21T07:13:31.138Z,20.87
2019-05-21T07:15:08.624Z,19.70
2019-05-21T07:16:45.810Z,20.00
2019-05-21T07:18:22.191Z,19.60
2019-05-21T07:19:59.547Z,21.87
2019-05-21T07:21:36.055Z,22.20
2019-05-21T07:23:13.352Z,22.67
2019-05-21T07:24:49.722Z,22.70
2019-05-21T07:26:27.079Z,22.23
2019-05-21T07:28:03.401Z,22.10
2019-05-21T07:29:40.626Z,21.97
2019-05-21T07:31:17.683Z,22.93
2019-05-21T07:32:56.715Z,21.23
2019-05-21T07:34:33.233Z,22.03
2019-05-21T07:36:10.604Z,21.40
2019-05-21T07:37:47.065Z,22.53
2019-05-21T07:39:24.402Z,22.50
2019-05-21T07:41:00.948Z,22.10
2019-05-21T07:42:38.431Z,22.53
2019-05-21T07:44:14.934Z,21.80
2019-05-21T07:45:53.472Z,19.70
2019-05-21T07:47:30.069Z,19.97
2019-05-21T07:49:07.408Z,19.87
2019-05-21T07:50:43.882Z,20.07
2019-05-21T07:52:21.110Z,18.90
2019-05-21T07:53:57.440Z,18.93
2019-05-21T07:55:35.088Z,18.60
2019-05-21T07:57:12.142Z,17.63
2019-05-21T07:58:49.246Z,18.60
2019-05-21T08:00:28.350Z,19.17
2019-05-21T08:02:06.042Z,18.23
2019-05-21T08:03:42.700Z,18.57
2019-05-21T08:05:20.050Z,18.13
2019-05-21T08:06:56.660Z,18.80
2019-05-21T08:08:33.863Z,18.20
2019-05-21T08:10:11.495Z,17.13
2019-05-21T08:11:48.632Z,17.53
2019-05-21T08:13:25.647Z,18.47
2019-05-21T08:15:02.666Z,17.33
2019-05-21T08:16:38.971Z,18.50
2019-05-21T08:18:16.328Z,16.67
2019-05-21T08:19:52.939Z,17.13
2019-05-21T08:21:30.214Z,17.40
2019-05-21T08:23:06.179Z,17.60
2019-05-21T08:24:43.596Z,17.53
2019-05-21T08:26:20.203Z,16.40
2019-05-21T08:27:57.678Z,16.10
2019-05-21T08:29:34.229Z,16.17
2019-05-21T08:31:11.545Z,15.67
2019-05-21T08:32:47.914Z,16.77
2019-05-21T08:36:06.711Z,14.97
2019-05-21T08:37:44.496Z,13.97
2019-05-21T08:39:28.974Z,14.63
2019-05-21T08:41:00.041Z,14.73
2019-05-21T08:42:36.486Z,14.53
2019-05-21T08:44:13.831Z,15.63
2019-05-21T08:45:50.368Z,16.27
2019-05-21T08:47:28.151Z,15.73
2019-05-21T08:49:04.751Z,14.77
2019-05-21T08:50:42.561Z,14.77
2019-05-21T08:52:19.020Z,14.83
2019-05-21T08:53:56.684Z,14.80
2019-05-21T08:55:33.192Z,14.43
2019-05-21T08:57:12.192Z,16.67
2019-05-21T08:58:48.743Z,15.47
2019-05-21T09:00:26.551Z,14.13
2019-05-21T09:02:02.419Z,14.03
2019-05-21T09:03:51.827Z,15.57
2019-05-21T09:05:29.576Z,15.17
2019-05-21T09:07:06.084Z,15.33
2019-05-21T09:08:43.419Z,14.70
2019-05-21T09:10:20.339Z,14.80
2019-05-21T09:11:57.589Z,15.67
2019-05-21T09:13:34.210Z,14.90
2019-05-21T09:15:12.461Z,13.40
2019-05-21T09:16:49.059Z,13.60
2019-05-21T09:18:26.308Z,13.53
2019-05-21T09:20:02.525Z,13.23
2019-05-21T09:21:39.811Z,13.53
2019-05-21T09:23:16.348Z,13.03
2019-05-21T09:24:53.625Z,12.90
2019-05-21T09:26:31.060Z,12.73
2019-05-21T09:28:08.315Z,12.37
2019-05-21T09:29:44.935Z,11.60
2019-05-21T09:31:23.188Z,12.60
2019-05-21T09:32:59.704Z,13.07
2019-05-21T09:34:48.058Z,13.33
2019-05-21T09:36:15.166Z,13.03
2019-05-21T09:37:53.834Z,12.27
2019-05-21T09:39:30.407Z,13.00
2019-05-21T09:41:07.649Z,12.10
2019-05-21T09:42:45.537Z,12.87
2019-05-21T09:44:23.088Z,12.73
2019-05-21T09:46:00.104Z,13.67
2019-05-21T09:47:37.458Z,12.93
2019-05-21T09:49:13.900Z,12.17
2019-05-21T09:50:51.156Z,12.80
2019-05-21T09:52:27.556Z,12.33
2019-05-21T09:54:04.849Z,11.63
2019-05-21T09:55:41.414Z,11.87
2019-05-21T09:57:19.610Z,12.73
2019-05-21T09:58:57.632Z,12.73
2019-05-21T10:00:35.463Z,13.47
2019-05-21T10:02:15.745Z,12.10
2019-05-21T10:03:53.916Z,12.90
2019-05-21T10:05:30.563Z,13.60
2019-05-21T10:07:08.009Z,16.03
2019-05-21T10:08:44.410Z,15.23
2019-05-21T10:10:21.980Z,15.27
2019-05-21T10:11:59.156Z,15.90
2019-05-21T10:13:36.345Z,15.77
2019-05-21T10:15:13.347Z,16.83
2019-05-21T10:16:50.115Z,17.70
2019-05-21T10:18:26.727Z,17.10
2019-05-21T10:20:04.203Z,18.10
2019-05-21T10:21:42.601Z,18.23
2019-05-21T10:23:20.698Z,18.90
2019-05-21T10:24:57.083Z,19.50
2019-05-21T10:26:34.640Z,19.80
2019-05-21T10:28:12.537Z,18.50
2019-05-21T10:29:49.784Z,11.97
2019-05-21T10:31:28.999Z,12.53
2019-05-21T10:33:06.258Z,14.10
2019-05-21T10:34:42.735Z,8.20
2019-05-21T10:36:20.189Z,9.90
2019-05-21T10:37:56.787Z,9.37
2019-05-21T10:39:34.159Z,8.03
2019-05-21T10:41:11.588Z,7.97
2019-05-21T10:42:48.924Z,7.13
2019-05-21T10:44:25.452Z,5.60
2019-05-21T10:46:02.629Z,6.77
2019-05-21T10:47:39.261Z,6.60
2019-05-21T10:49:16.371Z,6.40
2019-05-21T10:50:52.976Z,5.90
2019-05-21T10:52:30.417Z,5.73
2019-05-21T10:54:08.514Z,5.93
2019-05-21T10:55:45.683Z,6.50
2019-05-21T10:57:22.260Z,6.90
2019-05-21T10:58:59.502Z,7.00
2019-05-21T11:00:36.703Z,7.50
2019-05-21T11:02:31.082Z,7.30
2019-05-21T11:04:15.431Z,7.30
2019-05-21T11:06:08.855Z,7.93
2019-05-21T11:07:32.980Z,8.77
2019-05-21T11:09:11.824Z,9.53
2019-05-21T11:10:49.132Z,8.93
2019-05-21T11:12:26.340Z,7.63
2019-05-21T11:14:03.818Z,7.30
2019-05-21T11:15:40.700Z,6.93
2019-05-21T11:17:17.973Z,6.43
2019-05-21T11:18:54.448Z,7.17
2019-05-21T11:20:31.781Z,6.57
2019-05-21T11:22:08.311Z,6.60
2019-05-21T11:23:45.752Z,6.37
2019-05-21T11:25:22.403Z,5.67
2019-05-21T11:26:59.915Z,7.00
2019-05-21T11:28:36.353Z,6.53
2019-05-21T11:30:14.092Z,6.40
2019-05-21T11:31:57.194Z,6.63
2019-05-21T11:33:30.408Z,7.30
2019-05-21T11:35:09.006Z,7.37
2019-05-21T11:36:46.666Z,8.10
2019-05-21T11:38:37.763Z,7.57
2019-05-21T11:40:02.113Z,7.40
2019-05-21T11:41:38.816Z,6.50
2019-05-21T11:43:16.084Z,7.97
2019-05-21T11:44:52.721Z,7.83
2019-05-21T11:46:29.933Z,7.80
2019-05-21T11:48:06.876Z,7.67
2019-05-21T11:49:44.305Z,8.30
2019-05-21T11:51:20.813Z,7.70
2019-05-21T11:52:58.154Z,8.13
2019-05-21T11:54:34.584Z,8.27
2019-05-21T11:56:12.744Z,8.87
2019-05-21T11:57:49.136Z,9.27
2019-05-21T11:59:26.401Z,9.53
2019-05-21T12:01:02.925Z,9.47
2019-05-21T12:02:40.387Z,9.43
2019-05-21T12:04:16.839Z,10.23
2019-05-21T12:05:55.214Z,9.50
2019-05-21T12:07:31.820Z,10.50
2019-05-21T12:09:09.501Z,8.77
2019-05-21T12:10:46.611Z,9.20
2019-05-21T12:12:23.786Z,9.63
2019-05-21T12:14:00.306Z,9.50
2019-05-21T12:15:37.773Z,9.30
2019-05-21T12:17:14.323Z,9.43
2019-05-21T12:18:51.631Z,9.73
2019-05-21T12:20:36.595Z,9.37
2019-05-21T12:22:07.255Z,9.33
2019-05-21T12:23:43.662Z,10.13
2019-05-21T12:25:20.966Z,10.50
2019-05-21T12:26:57.618Z,9.97
2019-05-21T12:28:34.794Z,10.13
2019-05-21T12:30:11.802Z,11.00
2019-05-21T12:31:49.059Z,10.67
2019-05-21T12:33:25.693Z,10.23
2019-05-21T12:35:03.021Z,11.67
2019-05-21T12:36:39.534Z,11.07
2019-05-21T12:38:16.769Z,11.53
2019-05-21T12:39:53.403Z,11.80
2019-05-21T12:41:31.274Z,12.00
2019-05-21T12:43:07.892Z,11.47
2019-05-21T12:44:46.011Z,11.53
2019-05-21T12:46:22.526Z,10.90
2019-05-21T12:48:00.101Z,11.13
2019-05-21T12:49:37.433Z,12.23
2019-05-21T12:51:15.534Z,11.97
2019-05-21T12:52:52.018Z,11.63
2019-05-21T12:54:29.071Z,12.00
2019-05-21T12:56:05.580Z,12.60
2019-05-21T12:57:42.957Z,12.27
2019-05-21T12:59:19.394Z,12.87
2019-05-21T13:00:56.658Z,12.27
2019-05-21T13:02:33.166Z,11.90
2019-05-21T13:04:10.437Z,12.53
2019-05-21T13:05:46.806Z,12.03
2019-05-21T13:07:23.624Z,11.87
2019-05-21T13:09:00.421Z,12.63
2019-05-21T13:10:38.233Z,12.07
2019-05-21T13:12:16.338Z,11.67
2019-05-21T13:13:54.460Z,12.67
2019-05-21T13:15:30.979Z,12.20
2019-05-21T13:17:08.264Z,11.83
2019-05-21T13:18:44.710Z,12.97
2019-05-21T13:20:23.248Z,13.57
2019-05-21T13:22:01.558Z,13.63
2019-05-21T13:23:38.700Z,13.67
2019-05-21T13:25:15.312Z,12.83
2019-05-21T13:26:53.943Z,11.93
2019-05-21T13:28:30.370Z,12.00
2019-05-21T13:30:09.470Z,13.07
2019-05-21T13:31:45.847Z,13.80
2019-05-21T13:33:23.384Z,14.20
2019-05-21T13:34:59.868Z,13.07
2019-05-21T13:36:37.406Z,13.60
2019-05-21T13:38:15.405Z,14.43
2019-05-21T13:39:52.644Z,14.90
2019-05-21T13:41:29.797Z,14.47
2019-05-21T13:43:07.562Z,14.43
2019-05-21T13:44:44.037Z,15.97
2019-05-21T13:46:21.288Z,13.83
2019-05-21T13:47:57.945Z,14.63
2019-05-21T13:49:35.124Z,14.13
2019-05-21T13:51:11.672Z,13.87
2019-05-21T13:52:48.785Z,13.37
2019-05-21T13:54:25.323Z,13.17
2019-05-21T13:56:21.380Z,13.50
2019-05-21T13:57:58.745Z,13.00
2019-05-21T13:59:35.187Z,13.47
2019-05-21T14:01:15.923Z,13.47
2019-05-21T14:02:51.693Z,13.53
2019-05-21T14:04:30.442Z,13.30
2019-05-21T14:06:07.266Z,13.43
2019-05-21T14:07:44.553Z,13.33
2019-05-21T14:09:21.466Z,14.00
2019-05-21T14:10:58.704Z,13.63
2019-05-21T14:12:35.256Z,14.20
2019-05-21T14:14:12.561Z,12.03
2019-05-21T14:15:49.081Z,11.50
2019-05-21T14:17:26.462Z,13.73
2019-05-21T14:19:03.008Z,12.90
2019-05-21T14:20:40.297Z,13.20
2019-05-21T14:22:16.985Z,13.83
2019-05-21T14:23:54.316Z,14.50
2019-05-21T14:25:31.354Z,14.53
2019-05-21T14:27:08.884Z,13.90
2019-05-21T14:28:45.355Z,14.30
2019-05-21T14:30:23.284Z,13.50
2019-05-21T14:31:59.728Z,13.13
2019-05-21T14:33:37.115Z,13.17
2019-05-21T14:35:13.874Z,12.40
2019-05-21T14:36:51.125Z,12.17
2019-05-21T14:38:27.572Z,11.73
2019-05-21T14:40:09.083Z,10.67
2019-05-21T14:41:45.991Z,11.27
2019-05-21T14:43:22.529Z,10.70
2019-05-21T14:44:59.840Z,10.40
2019-05-21T14:46:36.378Z,9.77
2019-05-21T14:48:13.412Z,10.00
2019-05-21T14:49:49.846Z,10.13
2019-05-21T14:51:27.056Z,9.37
2019-05-21T14:53:03.713Z,9.97
2019-05-21T14:54:41.017Z,9.50
2019-05-21T14:56:17.699Z,10.63
2019-05-21T14:57:54.927Z,10.83
2019-05-21T14:59:32.036Z,10.27
2019-05-21T15:01:09.396Z,10.40
2019-05-21T15:02:46.782Z,11.30
2019-05-21T15:04:24.677Z,11.07
2019-05-21T15:06:01.519Z,11.03
2019-05-21T15:07:38.726Z,11.33
2019-05-21T15:09:15.240Z,12.17
2019-05-21T15:10:52.493Z,11.57
2019-05-21T15:12:28.778Z,11.33
2019-05-21T15:14:06.326Z,11.07
2019-05-21T15:15:43.174Z,12.43
2019-05-21T15:17:21.000Z,11.37
2019-05-21T15:18:57.620Z,11.67
2019-05-21T15:20:51.895Z,10.93
2019-05-21T15:22:28.416Z,11.03
2019-05-21T15:24:06.915Z,11.40
2019-05-21T15:25:43.494Z,10.17
2019-05-21T15:27:20.616Z,9.27
2019-05-21T15:28:56.925Z,9.57
2019-05-21T15:30:34.152Z,15.47
2019-05-21T15:32:10.735Z,9.30
2019-05-21T15:33:47.944Z,6.53
2019-05-21T15:35:24.451Z,7.60
2019-05-21T15:37:01.559Z,6.23
2019-05-21T15:38:49.298Z,7.37
2019-05-21T15:40:17.510Z,7.77
2019-05-21T15:41:54.188Z,6.97
2019-05-21T15:43:31.734Z,7.30
2019-05-21T15:45:08.638Z,7.67
2019-05-21T15:46:50.024Z,7.70
2019-05-21T15:48:26.692Z,8.10
2019-05-21T15:50:04.666Z,7.97
2019-05-21T15:51:41.189Z,8.57
2019-05-21T15:53:18.513Z,8.13
2019-05-21T15:54:55.065Z,8.83
2019-05-21T15:56:32.164Z,8.67
2019-05-21T15:58:08.636Z,9.07
2019-05-21T15:59:45.829Z,9.30
2019-05-21T16:01:22.275Z,9.23
2019-05-21T16:02:59.539Z,10.10
2019-05-21T16:04:36.019Z,10.17
2019-05-21T16:06:14.246Z,9.90
2019-05-21T16:07:50.645Z,10.93
2019-05-21T16:09:28.842Z,10.67
2019-05-21T16:11:06.260Z,11.27
2019-05-21T16:12:44.111Z,10.77
2019-05-21T16:14:20.572Z,11.13
2019-05-21T16:15:57.871Z,10.60
2019-05-21T16:17:35.473Z,10.93
2019-05-21T16:19:12.724Z,11.00
2019-05-21T16:20:49.156Z,11.30
2019-05-21T16:22:26.499Z,10.93
2019-05-21T16:24:02.867Z,9.23
2019-05-21T16:25:40.139Z,9.83
2019-05-21T16:27:16.572Z,9.50
2019-05-21T16:28:53.809Z,9.00
2019-05-21T16:30:30.876Z,8.97
2019-05-21T16:32:08.691Z,8.50
2019-05-21T16:33:45.533Z,9.13
2019-05-21T16:35:22.816Z,7.77
2019-05-21T16:36:59.258Z,9.00
2019-05-21T16:38:36.516Z,9.13
2019-05-21T16:40:14.786Z,8.00
2019-05-21T16:41:51.896Z,7.70
2019-05-21T16:43:28.369Z,8.40
2019-05-21T16:45:08.545Z,8.10
2019-05-21T16:46:45.148Z,7.93
2019-05-21T16:48:22.517Z,8.60
2019-05-21T16:49:58.924Z,8.00
2019-05-21T16:51:36.599Z,7.77
2019-05-21T16:53:13.407Z,8.07
2019-05-21T16:54:50.781Z,7.97
2019-05-21T16:56:28.237Z,7.27
2019-05-21T16:58:05.790Z,7.90
2019-05-21T16:59:42.594Z,6.83
2019-05-21T17:01:19.932Z,6.97
2019-05-21T17:02:56.538Z,6.70
2019-05-21T17:04:33.573Z,7.27
2019-05-21T17:06:10.136Z,5.63
2019-05-21T17:07:47.311Z,6.37
2019-05-21T17:09:27.990Z,5.70
2019-05-21T17:11:03.113Z,6.43
2019-05-21T17:12:39.619Z,6.27
2019-05-21T17:14:16.912Z,5.83
2019-05-21T17:15:53.920Z,5.87
2019-05-21T17:17:31.604Z,5.73
2019-05-21T17:19:08.714Z,6.67
2019-05-21T17:20:46.004Z,6.10
2019-05-21T17:22:22.425Z,5.47
2019-05-21T17:24:00.084Z,5.27
2019-05-21T17:25:36.502Z,5.17
2019-05-21T17:27:13.949Z,6.57
2019-05-21T17:28:49.852Z,5.20
2019-05-21T17:30:27.247Z,4.07
2019-05-21T17:32:06.448Z,4.63
2019-05-21T17:33:42.715Z,4.47
2019-05-21T17:35:19.223Z,4.50
2019-05-21T17:36:57.386Z,4.20
2019-05-21T17:38:34.054Z,4.83
2019-05-21T17:40:12.279Z,5.00
2019-05-21T17:41:48.897Z,6.63
2019-05-21T17:43:25.995Z,7.17
2019-05-21T17:45:02.446Z,7.93
2019-05-21T17:46:39.634Z,7.93
2019-05-21T17:48:16.301Z,7.13
2019-05-21T17:49:53.769Z,9.43
2019-05-21T17:51:30.641Z,9.60
2019-05-21T17:53:08.188Z,9.30
2019-05-21T17:54:56.246Z,5.73
2019-05-21T17:56:23.701Z,8.43
2019-05-21T17:58:00.358Z,7.63
2019-05-21T17:59:37.559Z,7.93
2019-05-21T18:01:16.136Z,6.07
2019-05-21T18:02:53.740Z,6.27
2019-05-21T18:04:31.007Z,7.60
2019-05-21T18:06:09.555Z,13.00
2019-05-21T18:07:46.541Z,10.80
2019-05-21T18:09:24.378Z,11.10
2019-05-21T18:11:01.206Z,10.37
2019-05-21T18:12:39.899Z,9.57
2019-05-21T18:14:16.552Z,9.13
2019-05-21T18:15:54.603Z,10.57
2019-05-21T18:17:33.133Z,9.13
2019-05-21T18:19:10.485Z,10.03
2019-05-21T18:20:46.979Z,9.20
2019-05-21T18:22:25.525Z,9.20
2019-05-21T18:24:02.161Z,8.83
2019-05-21T18:25:39.408Z,10.30
2019-05-21T18:27:16.193Z,9.73
2019-05-21T18:28:53.536Z,10.23
2019-05-21T18:30:31.022Z,10.57
2019-05-21T18:32:08.261Z,9.73
2019-05-21T18:33:44.858Z,9.67
2019-05-21T18:35:22.098Z,11.20
2019-05-21T18:36:58.637Z,10.70
2019-05-21T18:38:36.185Z,11.77
2019-05-21T18:40:13.099Z,11.57
2019-05-21T18:41:50.388Z,11.37
2019-05-21T18:43:27.106Z,11.13
2019-05-21T18:45:05.671Z,9.87
2019-05-21T18:46:42.582Z,11.20
2019-05-21T18:48:19.763Z,10.00
2019-05-21T18:49:56.311Z,10.17
2019-05-21T18:51:33.756Z,8.87
2019-05-21T18:53:10.527Z,10.73
2019-05-21T18:54:49.506Z,10.67
2019-05-21T18:56:26.025Z,8.80
2019-05-21T18:58:03.199Z,7.63
2019-05-21T18:59:39.906Z,8.67
2019-05-21T19:01:18.013Z,8.67
2019-05-21T19:02:54.596Z,8.20
2019-05-21T19:04:32.091Z,10.00
2019-05-21T19:06:08.568Z,10.00
2019-05-21T19:07:45.738Z,8.17
2019-05-21T19:09:22.472Z,9.83
2019-05-21T19:10:59.753Z,8.07
2019-05-21T19:12:38.637Z,8.13
2019-05-21T19:14:16.033Z,8.50
2019-05-21T19:15:52.371Z,8.37
2019-05-21T19:17:35.546Z,9.03
2019-05-21T19:19:08.029Z,9.37
2019-05-21T19:20:45.308Z,11.23
2019-05-21T19:22:22.024Z,12.27
2019-05-21T19:23:59.461Z,12.17
2019-05-21T19:25:36.099Z,12.43
2019-05-21T19:27:13.293Z,9.33
2019-05-21T19:28:50.668Z,9.40
2019-05-21T19:30:28.088Z,10.13
2019-05-21T19:32:04.902Z,9.70
2019-05-21T19:33:41.976Z,8.30
2019-05-21T19:35:20.683Z,10.13
2019-05-21T19:36:57.931Z,8.67
2019-05-21T19:38:37.178Z,6.53
2019-05-21T19:40:15.281Z,6.43
2019-05-21T19:41:53.284Z,9.10
2019-05-21T19:43:30.094Z,8.37
2019-05-21T19:45:10.673Z,7.33
2019-05-21T19:46:47.444Z,8.20
2019-05-21T19:48:24.695Z,6.90
2019-05-21T19:50:01.150Z,8.93
2019-05-21T19:51:38.414Z,7.30
2019-05-21T19:53:14.942Z,7.53
2019-05-21T19:54:52.346Z,7.63
2019-05-21T19:56:28.800Z,6.57
2019-05-21T19:58:06.553Z,7.33
2019-05-21T19:59:43.334Z,7.27
2019-05-21T20:01:21.073Z,7.40
2019-05-21T20:02:57.696Z,7.63
2019-05-21T20:04:35.803Z,6.57
2019-05-21T20:06:13.098Z,6.50
2019-05-21T20:07:50.377Z,6.50
2019-05-21T20:09:28.628Z,7.93
2019-05-21T20:11:07.174Z,8.70
2019-05-21T20:12:43.810Z,7.57
2019-05-21T20:14:21.193Z,6.60
2019-05-21T20:15:59.664Z,7.30
2019-05-21T20:17:37.603Z,6.40
2019-05-21T20:19:15.459Z,6.17
2019-05-21T20:20:53.722Z,6.17
2019-05-21T20:22:32.037Z,6.40
2019-05-21T20:24:09.929Z,6.87
2019-05-21T20:25:56.061Z,6.40
2019-05-21T20:27:26.840Z,5.83
2019-05-21T20:29:04.438Z,5.90
2019-05-21T20:30:44.840Z,6.20
2019-05-21T20:32:23.327Z,5.97
2019-05-21T20:34:01.747Z,5.70
2019-05-21T20:35:39.446Z,6.57
2019-05-21T20:37:17.403Z,6.17
2019-05-21T20:38:54.100Z,6.30
2019-05-21T20:40:31.772Z,6.57
2019-05-21T20:42:10.327Z,6.60
2019-05-21T20:43:58.548Z,6.33
2019-05-21T20:45:28.068Z,6.43
2019-05-21T20:47:07.811Z,7.30
2019-05-21T20:48:44.957Z,6.93
2019-05-21T20:50:23.557Z,7.63
2019-05-21T20:52:16.112Z,6.63
2019-05-21T20:53:39.565Z,7.33
2019-05-21T20:55:18.344Z,7.00
2019-05-21T20:56:56.061Z,6.83
2019-05-21T20:58:32.595Z,7.20
2019-05-21T21:00:13.544Z,7.10
2019-05-21T21:01:51.222Z,6.90
2019-05-21T21:03:28.395Z,6.60
2019-05-21T21:05:07.188Z,6.80
2019-05-21T21:06:44.205Z,6.90
2019-05-21T21:08:27.693Z,6.93
2019-05-21T21:10:04.017Z,6.40
2019-05-21T21:11:41.664Z,5.97
2019-05-21T21:13:20.848Z,6.07
2019-05-21T21:14:57.986Z,6.53
2019-05-21T21:16:35.670Z,6.03